createdAt,value
2018-07-14T00:01:12.116Z,5.00
2018-07-14T00:03:40.279Z,7.27
2018-07-14T00:06:08.450Z,4.80
2018-07-14T00:08:36.726Z,5.80
2018-07-14T00:11:04.833Z,4.77
2018-07-14T00:13:33.082Z,5.40
2018-07-14T00:16:01.139Z,5.53
2018-07-14T00:18:29.223Z,5.37
2018-07-14T00:20:57.286Z,5.83
2018-07-14T00:23:25.504Z,5.73
2018-07-14T00:25:58.965Z,5.00
2018-07-14T00:28:27.108Z,5.25
2018-07-14T00:30:55.158Z,5.97
2018-07-14T00:33:23.233Z,4.90
2018-07-14T00:35:51.341Z,5.20
2018-07-14T00:38:19.469Z,6.03
2018-07-14T00:40:47.585Z,4.80
2018-07-14T00:43:15.698Z,5.30
2018-07-14T00:45:43.796Z,5.60
2018-07-14T00:48:12.117Z,5.70
2018-07-14T00:50:40.401Z,5.37
2018-07-14T00:53:08.527Z,5.97
2018-07-14T00:55:36.709Z,5.20
2018-07-14T00:58:05.067Z,5.80
2018-07-14T01:00:33.272Z,5.22
2018-07-14T01:03:01.385Z,5.07
2018-07-14T01:05:29.441Z,5.73
2018-07-14T01:07:57.630Z,5.90
2018-07-14T01:10:25.731Z,5.47
2018-07-14T01:12:53.823Z,5.37
2018-07-14T01:15:21.896Z,5.53
2018-07-14T01:17:50.074Z,5.47
2018-07-14T01:20:18.128Z,5.90
2018-07-14T01:22:46.286Z,5.80
2018-07-14T01:25:14.469Z,5.47
2018-07-14T01:27:42.694Z,5.53
2018-07-14T01:30:10.892Z,5.30
2018-07-14T01:32:39.031Z,5.77
2018-07-14T01:35:07.642Z,5.83
2018-07-14T01:37:35.852Z,5.70
2018-07-14T01:40:04.020Z,6.00
2018-07-14T01:42:32.305Z,5.27
2018-07-14T01:45:00.554Z,6.27
2018-07-14T01:47:29.077Z,5.90
2018-07-14T01:49:57.251Z,6.30
2018-07-14T01:52:25.458Z,5.90
2018-07-14T01:54:53.543Z,5.17
2018-07-14T01:57:21.716Z,5.35
2018-07-14T01:59:50.049Z,5.43
2018-07-14T02:02:18.183Z,6.08
2018-07-14T02:04:46.277Z,5.92
2018-07-14T02:07:14.532Z,5.63
2018-07-14T02:09:42.611Z,5.63
2018-07-14T02:12:10.807Z,5.33
2018-07-14T02:14:38.906Z,5.70
2018-07-14T02:17:06.978Z,5.90
2018-07-14T02:19:35.045Z,5.33
2018-07-14T02:22:03.154Z,6.20
2018-07-14T02:24:32.543Z,5.90
2018-07-14T02:27:00.605Z,5.43
2018-07-14T02:29:28.698Z,6.43
2018-07-14T02:31:56.825Z,6.13
2018-07-14T02:34:24.931Z,6.45
2018-07-14T02:36:53.280Z,6.20
2018-07-14T02:39:21.351Z,5.80
2018-07-14T02:41:50.343Z,6.50
2018-07-14T02:44:18.882Z,6.30
2018-07-14T02:46:47.628Z,6.00
2018-07-14T02:49:15.775Z,6.28
2018-07-14T02:51:44.128Z,5.83
2018-07-14T02:54:12.240Z,6.40
2018-07-14T02:56:40.680Z,6.35
2018-07-14T02:59:08.973Z,6.37
2018-07-14T03:01:37.030Z,6.50
2018-07-14T03:04:05.145Z,7.00
2018-07-14T03:06:34.112Z,7.10
2018-07-14T03:09:02.255Z,6.87
2018-07-14T03:11:32.105Z,7.20
2018-07-14T03:14:00.238Z,6.53
2018-07-14T03:16:28.619Z,6.65
2018-07-14T03:18:56.807Z,7.33
2018-07-14T03:21:24.882Z,7.10
2018-07-14T03:23:52.996Z,7.15
2018-07-14T03:26:21.087Z,7.37
2018-07-14T03:28:49.684Z,7.03
2018-07-14T03:31:17.976Z,7.03
2018-07-14T03:33:46.220Z,7.17
2018-07-14T03:36:14.303Z,8.13
2018-07-14T03:38:42.387Z,7.63
2018-07-14T03:41:10.861Z,7.85
2018-07-14T03:43:39.027Z,7.83
2018-07-14T03:46:07.106Z,7.80
2018-07-14T03:48:35.343Z,7.57
2018-07-14T03:51:03.483Z,8.50
2018-07-14T03:53:31.572Z,7.57
2018-07-14T03:55:59.699Z,8.47
2018-07-14T03:58:27.811Z,7.15
2018-07-14T04:00:55.880Z,7.80
2018-07-14T04:03:24.209Z,7.60
2018-07-14T04:05:52.276Z,7.00
2018-07-14T04:08:20.403Z,7.58
2018-07-14T04:10:49.134Z,7.10
2018-07-14T04:13:17.228Z,7.67
2018-07-14T04:15:45.493Z,7.83
2018-07-14T04:18:13.571Z,8.00
2018-07-14T04:20:41.958Z,7.77
2018-07-14T04:23:10.957Z,8.35
2018-07-14T04:25:39.112Z,7.80
2018-07-14T04:28:07.227Z,8.30
2018-07-14T04:30:35.351Z,8.10
2018-07-14T04:33:03.521Z,7.40
2018-07-14T04:35:31.614Z,7.53
2018-07-14T04:37:59.742Z,7.77
2018-07-14T04:40:27.813Z,8.30
2018-07-14T04:42:56.015Z,8.40
2018-07-14T04:45:24.134Z,8.63
2018-07-14T04:47:52.395Z,8.80
2018-07-14T04:50:20.499Z,8.70
2018-07-14T04:52:48.643Z,9.00
2018-07-14T04:55:16.770Z,8.63
2018-07-14T04:57:45.518Z,8.17
2018-07-14T05:00:13.643Z,8.17
2018-07-14T05:02:41.761Z,8.90
2018-07-14T05:05:09.963Z,7.80
2018-07-14T05:07:38.201Z,9.23
2018-07-14T05:10:06.428Z,8.33
2018-07-14T05:12:34.654Z,8.13
2018-07-14T05:15:02.799Z,7.93
2018-07-14T05:17:30.922Z,8.00
2018-07-14T05:19:58.999Z,8.18
2018-07-14T05:22:27.506Z,8.23
2018-07-14T05:24:55.630Z,8.07
2018-07-14T05:27:23.847Z,8.50
2018-07-14T05:29:51.967Z,8.50
2018-07-14T05:32:20.141Z,7.90
2018-07-14T05:34:48.759Z,8.63
2018-07-14T05:37:16.941Z,8.50
2018-07-14T05:39:45.031Z,8.47
2018-07-14T05:42:14.119Z,8.00
2018-07-14T05:44:42.347Z,8.37
2018-07-14T05:47:11.164Z,8.97
2018-07-14T05:49:39.333Z,7.90
2018-07-14T05:52:07.391Z,7.17
2018-07-14T05:54:35.655Z,7.93
2018-07-14T05:57:03.711Z,8.77
2018-07-14T05:59:31.794Z,8.67
2018-07-14T06:01:59.843Z,8.17
2018-07-14T06:04:27.952Z,8.07
2018-07-14T06:06:56.108Z,8.83
2018-07-14T06:09:24.192Z,8.60
2018-07-14T06:11:52.324Z,8.10
2018-07-14T06:14:20.504Z,8.40
2018-07-14T06:16:48.545Z,7.90
2018-07-14T06:19:16.711Z,9.37
2018-07-14T06:21:44.790Z,8.50
2018-07-14T06:24:12.931Z,9.83
2018-07-14T06:26:41.351Z,8.07
2018-07-14T06:29:09.434Z,7.60
2018-07-14T06:31:37.516Z,7.70
2018-07-14T06:34:06.650Z,7.27
2018-07-14T06:36:34.734Z,7.53
2018-07-14T06:39:02.823Z,7.10
2018-07-14T06:41:30.925Z,7.00
2018-07-14T06:43:59.025Z,7.72
2018-07-14T06:46:27.618Z,7.20
2018-07-14T06:48:55.846Z,7.70
2018-07-14T06:51:24.092Z,6.93
2018-07-14T06:53:52.160Z,7.20
2018-07-14T06:56:20.278Z,6.70
2018-07-14T06:58:48.440Z,7.50
2018-07-14T07:01:16.552Z,6.90
2018-07-14T07:03:44.647Z,6.73
2018-07-14T07:06:12.927Z,6.70
2018-07-14T07:08:41.599Z,6.83
2018-07-14T07:11:09.731Z,6.40
2018-07-14T07:13:37.901Z,7.00
2018-07-14T07:16:06.031Z,6.67
2018-07-14T07:18:34.143Z,6.40
2018-07-14T07:21:02.250Z,6.63
2018-07-14T07:23:30.520Z,6.73
2018-07-14T07:25:58.677Z,7.07
2018-07-14T07:28:26.799Z,6.57
2018-07-14T07:30:54.992Z,6.33
2018-07-14T07:33:23.085Z,6.80
2018-07-14T07:35:51.203Z,6.28
2018-07-14T07:38:19.257Z,6.10
2018-07-14T07:40:47.384Z,6.40
2018-07-14T07:43:15.489Z,5.83
2018-07-14T07:45:43.586Z,6.73
2018-07-14T07:48:11.667Z,6.17
2018-07-14T07:50:39.774Z,5.43
2018-07-14T07:53:07.851Z,6.27
2018-07-14T07:55:35.935Z,6.60
2018-07-14T07:58:04.706Z,5.97
2018-07-14T08:00:32.893Z,6.30
2018-07-14T08:03:01.057Z,5.80
2018-07-14T08:05:29.182Z,5.60
2018-07-14T08:07:57.259Z,6.17
2018-07-14T08:10:25.360Z,6.70
2018-07-14T08:12:53.596Z,6.22
2018-07-14T08:15:21.789Z,6.50
2018-07-14T08:17:50.296Z,6.70
2018-07-14T08:20:19.512Z,7.30
2018-07-14T08:22:47.799Z,5.80
2018-07-14T08:25:16.175Z,6.03
2018-07-14T08:27:44.274Z,6.57
2018-07-14T08:30:12.401Z,10.37
2018-07-14T08:32:40.496Z,7.10
2018-07-14T08:35:08.648Z,6.20
2018-07-14T08:37:39.549Z,5.93
2018-07-14T08:40:07.754Z,7.10
2018-07-14T08:42:35.983Z,6.97
2018-07-14T08:45:04.139Z,6.97
2018-07-14T08:47:32.249Z,6.17
2018-07-14T08:50:00.387Z,6.80
2018-07-14T08:52:28.504Z,6.00
2018-07-14T08:54:56.610Z,6.67
2018-07-14T08:57:24.722Z,6.62
2018-07-14T08:59:52.828Z,6.50
2018-07-14T09:02:20.892Z,5.80
2018-07-14T09:04:49.064Z,6.50
2018-07-14T09:07:17.107Z,6.22
2018-07-14T09:09:45.187Z,6.10
2018-07-14T09:12:13.294Z,5.70
2018-07-14T09:14:42.140Z,5.67
2018-07-14T09:17:10.537Z,6.50
2018-07-14T09:19:38.632Z,5.40
2018-07-14T09:22:06.701Z,5.80
2018-07-14T09:24:34.827Z,18.20
2018-07-14T09:27:03.049Z,6.40
2018-07-14T09:29:31.388Z,5.10
2018-07-14T09:31:59.514Z,5.50
2018-07-14T09:34:27.713Z,5.93
2018-07-14T09:36:55.873Z,5.53
2018-07-14T09:39:23.933Z,5.00
2018-07-14T09:41:51.994Z,4.60
2018-07-14T09:44:20.260Z,4.73
2018-07-14T09:46:48.917Z,4.60
2018-07-14T09:49:16.978Z,4.58
2018-07-14T09:51:45.112Z,4.30
2018-07-14T09:54:13.567Z,4.77
2018-07-14T09:56:42.202Z,3.93
2018-07-14T09:59:10.316Z,4.90
2018-07-14T10:01:39.294Z,4.47
2018-07-14T10:04:07.840Z,4.50
2018-07-14T10:06:36.116Z,4.30
2018-07-14T10:09:04.735Z,4.40
2018-07-14T10:11:32.893Z,4.83
2018-07-14T10:14:00.983Z,4.63
2018-07-14T10:16:29.156Z,4.50
2018-07-14T10:18:57.242Z,5.13
2018-07-14T10:21:25.530Z,4.63
2018-07-14T10:23:53.641Z,4.40
2018-07-14T10:26:22.281Z,4.13
2018-07-14T10:28:50.492Z,4.37
2018-07-14T10:31:18.576Z,3.80
2018-07-14T10:33:46.936Z,4.20
2018-07-14T10:36:15.808Z,4.90
2018-07-14T10:38:43.974Z,3.97
2018-07-14T10:41:12.576Z,3.80
2018-07-14T10:43:40.732Z,4.00
2018-07-14T10:46:08.762Z,4.23
2018-07-14T10:48:36.942Z,3.90
2018-07-14T10:51:05.000Z,3.67
2018-07-14T10:53:33.055Z,3.93
2018-07-14T10:56:01.175Z,4.10
2018-07-14T10:58:29.248Z,4.20
2018-07-14T11:00:57.324Z,4.00
2018-07-14T11:03:25.439Z,3.85
2018-07-14T11:05:53.715Z,3.77
2018-07-14T11:08:22.126Z,3.90
2018-07-14T11:10:50.272Z,3.62
2018-07-14T11:13:20.618Z,3.53
2018-07-14T11:15:48.661Z,3.45
2018-07-14T11:18:41.406Z,3.97
2018-07-14T11:21:22.869Z,4.07
2018-07-14T11:23:51.100Z,3.70
2018-07-14T11:26:19.221Z,3.60
2018-07-14T11:28:47.392Z,3.70
2018-07-14T11:31:15.764Z,3.97
2018-07-14T11:33:43.968Z,3.80
2018-07-14T11:36:12.779Z,3.90
2018-07-14T11:38:41.603Z,3.30
2018-07-14T11:41:09.786Z,9.77
2018-07-14T11:43:37.879Z,3.70
2018-07-14T11:46:05.992Z,4.47
2018-07-14T11:48:34.088Z,4.37
2018-07-14T11:51:02.379Z,3.10
2018-07-14T11:53:30.515Z,3.50
2018-07-14T11:55:58.836Z,3.43
2018-07-14T11:58:27.082Z,3.20
2018-07-14T12:00:55.432Z,2.80
2018-07-14T12:03:23.846Z,3.37
2018-07-14T12:05:51.999Z,3.40
2018-07-14T12:08:20.303Z,2.87
2018-07-14T12:10:48.520Z,2.98
2018-07-14T12:13:16.658Z,2.60
2018-07-14T12:15:44.730Z,2.80
2018-07-14T12:18:19.215Z,3.00
2018-07-14T12:20:47.279Z,2.80
2018-07-14T12:23:15.390Z,3.10
2018-07-14T12:25:43.508Z,3.15
2018-07-14T12:28:12.123Z,2.50
2018-07-14T12:30:40.296Z,2.90
2018-07-14T12:33:08.468Z,2.85
2018-07-14T12:35:36.574Z,2.58
2018-07-14T12:38:04.768Z,2.87
2018-07-14T12:40:32.883Z,2.52
2018-07-14T12:43:01.047Z,3.00
2018-07-14T12:45:29.270Z,3.10
2018-07-14T12:47:57.405Z,2.40
2018-07-14T12:50:25.670Z,3.22
2018-07-14T12:53:02.248Z,2.97
2018-07-14T12:55:43.270Z,2.93
2018-07-14T12:58:11.863Z,2.60
2018-07-14T13:00:39.983Z,2.47
2018-07-14T13:03:09.310Z,2.58
2018-07-14T13:05:37.410Z,2.70
2018-07-14T13:08:05.867Z,2.72
2018-07-14T13:10:34.008Z,2.95
2018-07-14T13:13:02.103Z,2.27
2018-07-14T13:15:30.203Z,2.55
2018-07-14T13:17:58.381Z,2.83
2018-07-14T13:20:26.516Z,2.75
2018-07-14T13:22:54.719Z,2.95
2018-07-14T13:25:22.826Z,2.27
2018-07-14T13:27:50.947Z,2.60
2018-07-14T13:30:19.032Z,2.60
2018-07-14T13:32:47.098Z,2.30
2018-07-14T13:35:15.230Z,2.33
2018-07-14T13:37:43.273Z,2.50
2018-07-14T13:40:11.357Z,2.37
2018-07-14T13:42:39.472Z,2.70
2018-07-14T13:45:07.543Z,2.37
2018-07-14T13:47:35.746Z,2.50
2018-07-14T13:50:03.994Z,3.20
2018-07-14T13:52:32.355Z,2.90
2018-07-14T13:55:01.703Z,2.50
2018-07-14T13:57:30.032Z,2.83
2018-07-14T13:59:58.304Z,2.30
2018-07-14T14:02:26.607Z,2.65
2018-07-14T14:04:55.088Z,3.27
2018-07-14T14:07:25.413Z,2.93
2018-07-14T14:09:53.787Z,2.92
2018-07-14T14:12:22.154Z,2.73
2018-07-14T14:14:50.546Z,2.95
2018-07-14T14:17:19.317Z,3.00
2018-07-14T14:19:47.769Z,3.10
2018-07-14T14:22:16.036Z,2.93
2018-07-14T14:24:44.274Z,3.40
2018-07-14T14:27:13.372Z,3.10
2018-07-14T14:29:41.832Z,2.73
2018-07-14T14:32:10.106Z,3.20
2018-07-14T14:34:38.276Z,2.97
2018-07-14T14:37:06.554Z,3.03
2018-07-14T14:39:35.630Z,4.77
2018-07-14T14:42:05.714Z,2.70
2018-07-14T14:44:35.330Z,3.10
2018-07-14T14:47:03.688Z,2.93
2018-07-14T14:49:31.956Z,3.10
2018-07-14T14:52:00.255Z,3.27
2018-07-14T14:54:28.754Z,2.85
2018-07-14T14:56:56.872Z,2.90
2018-07-14T14:59:25.465Z,3.50
2018-07-14T15:01:53.828Z,3.30
2018-07-14T15:04:22.227Z,3.60
2018-07-14T15:06:50.737Z,2.83
2018-07-14T15:09:18.962Z,3.17
2018-07-14T15:11:47.328Z,2.92
2018-07-14T15:14:15.760Z,3.10
2018-07-14T15:16:45.633Z,3.08
2018-07-14T15:19:14.306Z,3.87
2018-07-14T15:21:42.824Z,2.87
2018-07-14T15:24:11.068Z,3.00
2018-07-14T15:26:39.793Z,2.87
2018-07-14T15:29:08.346Z,2.93
2018-07-14T15:31:37.930Z,3.40
2018-07-14T15:34:06.920Z,3.20
2018-07-14T15:36:35.542Z,3.50
2018-07-14T15:39:05.066Z,3.15
2018-07-14T15:41:33.348Z,3.10
2018-07-14T15:44:01.606Z,3.10
2018-07-14T15:46:29.762Z,3.13
2018-07-14T15:48:58.051Z,3.47
2018-07-14T15:51:26.360Z,3.87
2018-07-14T15:53:54.612Z,3.98
2018-07-14T15:56:22.742Z,3.62
2018-07-14T15:58:51.375Z,3.60
2018-07-14T16:01:19.942Z,4.28
2018-07-14T16:03:48.151Z,5.67
2018-07-14T16:06:16.255Z,4.77
2018-07-14T16:08:44.408Z,3.13
2018-07-14T16:11:12.596Z,3.70
2018-07-14T16:13:41.511Z,3.43
2018-07-14T16:16:09.687Z,3.40
2018-07-14T16:18:38.100Z,3.60
2018-07-14T16:21:06.537Z,3.70
2018-07-14T16:23:34.851Z,3.77
2018-07-14T16:26:02.965Z,3.60
2018-07-14T16:28:31.201Z,3.97
2018-07-14T16:31:00.353Z,3.60
2018-07-14T16:33:28.541Z,3.55
2018-07-14T16:35:56.774Z,3.60
2018-07-14T16:38:24.883Z,3.70
2018-07-14T16:40:52.964Z,4.55
2018-07-14T16:43:21.086Z,3.53
2018-07-14T16:45:49.143Z,3.37
2018-07-14T16:48:17.699Z,4.60
2018-07-14T16:50:45.815Z,3.93
2018-07-14T16:53:14.643Z,3.10
2018-07-14T16:55:42.959Z,4.30
2018-07-14T16:58:11.054Z,3.50
2018-07-14T17:00:39.337Z,4.17
2018-07-14T17:03:07.389Z,3.43
2018-07-14T17:05:35.459Z,3.67
2018-07-14T17:08:03.586Z,4.40
2018-07-14T17:10:31.739Z,3.35
2018-07-14T17:12:59.904Z,4.20
2018-07-14T17:15:27.958Z,3.87
2018-07-14T17:17:56.075Z,3.55
2018-07-14T17:20:24.310Z,3.35
2018-07-14T17:22:52.384Z,3.47
2018-07-14T17:25:20.564Z,3.70
2018-07-14T17:27:48.759Z,3.40
2018-07-14T17:30:17.735Z,4.10
2018-07-14T17:32:45.879Z,4.17
2018-07-14T17:35:14.410Z,4.60
2018-07-14T17:37:42.515Z,4.10
2018-07-14T17:40:10.576Z,3.60
2018-07-14T17:42:38.649Z,4.20
2018-07-14T17:45:06.986Z,5.23
2018-07-14T17:47:35.093Z,7.13
2018-07-14T17:50:03.541Z,3.60
2018-07-14T17:52:31.707Z,4.13
2018-07-14T17:54:59.776Z,4.23
2018-07-14T17:57:27.897Z,3.90
2018-07-14T17:59:56.042Z,4.12
2018-07-14T18:02:24.304Z,4.17
2018-07-14T18:04:52.446Z,4.50
2018-07-14T18:07:20.582Z,4.30
2018-07-14T18:09:48.712Z,4.97
2018-07-14T18:12:16.776Z,5.00
2018-07-14T18:14:45.607Z,4.80
2018-07-14T18:17:14.822Z,4.83
2018-07-14T18:19:42.865Z,4.10
2018-07-14T18:22:11.040Z,4.27
2018-07-14T18:24:39.292Z,6.60
2018-07-14T18:27:07.439Z,5.17
2018-07-14T18:29:35.521Z,4.93
2018-07-14T18:32:03.638Z,5.33
2018-07-14T18:34:31.771Z,6.10
2018-07-14T18:36:59.883Z,6.00
2018-07-14T18:39:27.956Z,5.97
2018-07-14T18:41:56.045Z,5.33
2018-07-14T18:44:24.501Z,4.80
2018-07-14T18:46:52.570Z,4.30
2018-07-14T18:49:20.667Z,4.20
2018-07-14T18:51:48.974Z,4.80
2018-07-14T18:54:17.093Z,4.97
2018-07-14T18:56:45.390Z,4.87
2018-07-14T18:59:14.749Z,4.90
2018-07-14T19:01:42.816Z,6.00
2018-07-14T19:04:10.902Z,5.10
2018-07-14T19:06:38.986Z,5.87
2018-07-14T19:09:07.167Z,5.90
2018-07-14T19:11:35.174Z,5.00
2018-07-14T19:14:03.324Z,5.30
2018-07-14T19:16:31.450Z,5.40
2018-07-14T19:18:59.552Z,5.87
2018-07-14T19:21:27.661Z,5.37
2018-07-14T19:23:56.241Z,6.00
2018-07-14T19:26:24.488Z,5.40
2018-07-14T19:28:52.657Z,5.45
2018-07-14T19:31:21.423Z,6.30
2018-07-14T19:33:49.597Z,4.87
2018-07-14T19:36:17.652Z,5.63
2018-07-14T19:38:45.821Z,5.07
2018-07-14T19:41:15.020Z,5.15
2018-07-14T19:43:43.102Z,5.77
2018-07-14T19:46:11.197Z,5.63
2018-07-14T19:48:51.929Z,4.70
2018-07-14T19:51:23.120Z,5.12
2018-07-14T19:53:51.293Z,5.53
2018-07-14T19:56:19.418Z,6.37
2018-07-14T19:58:47.455Z,6.30
2018-07-14T20:01:15.779Z,6.80
2018-07-14T20:03:44.085Z,6.17
2018-07-14T20:06:12.305Z,6.40
2018-07-14T20:08:43.697Z,5.70
2018-07-14T20:11:11.992Z,9.37
2018-07-14T20:13:40.160Z,7.03
2018-07-14T20:16:09.703Z,7.10
2018-07-14T20:18:38.215Z,7.70
2018-07-14T20:21:06.418Z,6.80
2018-07-14T20:23:34.693Z,7.57
2018-07-14T20:26:02.750Z,6.27
2018-07-14T20:28:30.844Z,6.00
2018-07-14T20:30:58.979Z,6.40
2018-07-14T20:33:27.124Z,6.35
2018-07-14T20:35:55.779Z,6.30
2018-07-14T20:38:23.866Z,7.00
2018-07-14T20:40:51.993Z,7.07
2018-07-14T20:43:20.054Z,6.73
2018-07-14T20:45:48.187Z,8.10
2018-07-14T20:48:16.336Z,6.70
2018-07-14T20:50:45.610Z,7.33
2018-07-14T20:53:13.735Z,7.57
2018-07-14T20:55:41.972Z,7.73
2018-07-14T20:58:10.053Z,6.17
2018-07-14T21:00:38.178Z,5.77
2018-07-14T21:03:06.475Z,5.97
2018-07-14T21:05:34.668Z,5.97
2018-07-14T21:08:02.774Z,6.07
2018-07-14T21:10:30.887Z,6.10
2018-07-14T21:12:58.980Z,6.25
2018-07-14T21:15:27.069Z,5.97
2018-07-14T21:17:55.237Z,5.20
2018-07-14T21:20:23.323Z,6.00
2018-07-14T21:22:51.883Z,5.60
2018-07-14T21:25:20.016Z,7.53
2018-07-14T21:27:48.144Z,6.10
2018-07-14T21:30:16.300Z,5.97
2018-07-14T21:32:44.371Z,5.97
2018-07-14T21:35:12.475Z,5.50
2018-07-14T21:37:40.525Z,5.97
2018-07-14T21:40:08.689Z,5.60
2018-07-14T21:42:36.723Z,6.08
2018-07-14T21:45:04.852Z,6.07
2018-07-14T21:47:32.909Z,6.00
2018-07-14T21:50:00.968Z,6.30
2018-07-14T21:52:29.510Z,6.15
2018-07-14T21:54:58.612Z,5.58
2018-07-14T21:57:26.677Z,5.87
2018-07-14T21:59:54.793Z,6.12
2018-07-14T22:02:22.864Z,5.60
2018-07-14T22:04:50.932Z,5.67
2018-07-14T22:07:19.017Z,5.67
2018-07-14T22:09:47.700Z,5.80
2018-07-14T22:12:18.983Z,6.40
2018-07-14T22:14:47.872Z,9.50
2018-07-14T22:17:15.945Z,6.40
2018-07-14T22:19:44.012Z,6.10
2018-07-14T22:22:12.100Z,6.20
2018-07-14T22:24:40.171Z,6.43
2018-07-14T22:27:08.372Z,6.20
2018-07-14T22:29:36.494Z,6.03
2018-07-14T22:32:04.596Z,6.90
2018-07-14T22:34:32.684Z,6.90
2018-07-14T22:37:00.872Z,6.28
2018-07-14T22:39:29.179Z,6.10
2018-07-14T22:41:57.321Z,8.53
2018-07-14T22:44:25.468Z,6.30
2018-07-14T22:46:53.674Z,6.17
2018-07-14T22:49:21.850Z,6.62
2018-07-14T22:51:50.046Z,6.37
2018-07-14T22:54:18.121Z,6.30
2018-07-14T22:56:46.193Z,6.47
2018-07-14T22:59:14.547Z,6.23
2018-07-14T23:01:42.842Z,6.40
2018-07-14T23:04:10.911Z,6.73
2018-07-14T23:06:39.043Z,6.33
2018-07-14T23:09:07.631Z,6.60
2018-07-14T23:11:35.787Z,6.63
2018-07-14T23:14:03.960Z,6.67
2018-07-14T23:16:32.118Z,7.23
2018-07-14T23:19:00.311Z,14.00
2018-07-14T23:21:28.418Z,7.00
2018-07-14T23:23:56.546Z,6.70
2018-07-14T23:26:24.600Z,6.30
2018-07-14T23:28:52.660Z,6.93
2018-07-14T23:31:20.753Z,6.15
2018-07-14T23:33:48.891Z,7.27
2018-07-14T23:36:17.024Z,6.40
2018-07-14T23:38:45.087Z,6.80
2018-07-14T23:41:13.190Z,5.60
2018-07-14T23:43:41.363Z,6.95
2018-07-14T23:46:09.617Z,6.27
2018-07-14T23:48:37.667Z,6.67
2018-07-14T23:51:06.103Z,6.90
2018-07-14T23:53:34.154Z,6.17
2018-07-14T23:56:02.521Z,6.80
2018-07-14T23:58:30.566Z,6.97
